Time;durP1;ratioP1;P1;durP2;ratioP2;P2;SDS_P1;SDS_P2;PMS_P1;PMS_P2;Temp;Humidity;BMP_temperature;BMP_pressure;BME280_temperature;BME280_humidity;BME280_pressure;Samples;Min_cycle;Max_cycle;Signal;HPM_P1;HPM_P2
2022/02/21 00:00:18;;;;;;;16.23;2.35;;;;;;;5.85;78.31;99795.72;5044864;28;20218;-77
2022/02/21 00:02:47;;;;;;;14.82;2.78;;;;;;;5.84;79.01;99794.06;5046701;28;20041;-77
2022/02/21 00:05:14;;;;;;;23.00;3.23;;;;;;;5.84;78.88;99795.78;5022707;28;20018;-78
2022/02/21 00:07:40;;;;;;;11.43;2.53;;;;;;;5.82;79.03;99792.41;5036276;28;20036;-77
2022/02/21 00:10:08;;;;;;;14.68;2.13;;;;;;;5.79;79.24;99815.91;5037833;28;20041;-77
2022/02/21 00:12:34;;;;;;;12.90;2.47;;;;;;;5.81;78.53;99822.75;5042322;28;20028;-77
2022/02/21 00:14:59;;;;;;;16.73;2.30;;;;;;;5.76;78.17;99812.50;5026136;28;20352;-78
2022/02/21 00:17:25;;;;;;;16.80;2.58;;;;;;;5.75;77.68;99826.41;5046890;28;20226;-78
2022/02/21 00:19:50;;;;;;;13.57;2.10;;;;;;;5.74;77.06;99826.47;5009474;28;20044;-78
2022/02/21 00:22:16;;;;;;;22.80;2.92;;;;;;;5.72;76.54;99849.91;5046038;28;20039;-78
2022/02/21 00:24:41;;;;;;;13.65;1.83;;;;;;;5.72;76.29;99855.09;5054085;28;20379;-77
2022/02/21 00:27:06;;;;;;;22.40;3.08;;;;;;;5.68;76.49;99855.28;5047806;28;20363;-77
2022/02/21 00:29:32;;;;;;;8.88;1.83;;;;;;;5.66;77.58;99859.69;5025102;28;20121;-78
2022/02/21 00:31:57;;;;;;;12.23;1.92;;;;;;;5.63;77.69;99854.59;5022533;28;20044;-78
2022/02/21 00:34:23;;;;;;;10.48;1.70;;;;;;;5.61;77.81;99875.44;5007938;28;20098;-77
2022/02/21 00:36:48;;;;;;;9.05;2.00;;;;;;;5.51;77.55;99869.72;5022335;28;20032;-78
2022/02/21 00:39:14;;;;;;;16.02;2.40;;;;;;;5.52;77.39;99892.19;5040409;28;20041;-77
2022/02/21 00:41:39;;;;;;;12.65;2.33;;;;;;;5.56;76.90;99918.88;5022964;28;20104;-77
2022/02/21 00:44:05;;;;;;;12.63;2.30;;;;;;;5.56;76.66;99874.72;5021932;28;20049;-77
2022/02/21 00:46:30;;;;;;;13.02;1.63;;;;;;;5.52;76.73;99899.97;5022976;28;20037;-77
2022/02/21 00:48:55;;;;;;;8.70;1.60;;;;;;;5.50;76.77;99893.97;5040587;28;20304;-76
2022/02/21 00:51:21;;;;;;;14.13;1.63;;;;;;;5.53;76.41;99921.59;5021980;28;20055;-78
2022/02/21 00:53:46;;;;;;;7.55;2.00;;;;;;;5.46;76.54;99905.38;5006456;28;20277;-77
2022/02/21 00:56:12;;;;;;;7.93;1.83;;;;;;;5.51;75.71;99915.59;5021836;28;20104;-77
2022/02/21 00:58:37;;;;;;;7.78;1.83;;;;;;;5.50;76.22;99895.75;5039854;28;20229;-78
2022/02/21 01:01:03;;;;;;;10.82;1.83;;;;;;;5.48;74.94;99898.38;5039861;28;20119;-77
2022/02/21 01:03:28;;;;;;;12.73;1.90;;;;;;;5.47;74.32;99938.22;5040095;28;20036;-77
2022/02/21 01:05:53;;;;;;;17.27;3.05;;;;;;;5.44;73.38;99906.31;5039497;28;20313;-78
2022/02/21 01:08:19;;;;;;;13.13;2.58;;;;;;;5.41;73.58;99899.50;5039683;28;20363;-77
2022/02/21 01:10:44;;;;;;;23.38;2.88;;;;;;;5.41;73.94;99901.25;5040217;28;20332;-77
2022/02/21 01:13:10;;;;;;;15.70;2.35;;;;;;;5.37;73.52;99901.34;5039605;28;20037;-77
2022/02/21 01:15:35;;;;;;;10.00;2.33;;;;;;;5.34;74.29;99901.44;5039860;28;20045;-77
2022/02/21 01:18:01;;;;;;;13.77;2.92;;;;;;;5.32;74.68;99913.63;5005894;28;20033;-77
2022/02/21 01:20:26;;;;;;;18.80;3.92;;;;;;;5.33;73.95;99917.94;5022651;28;20061;-77
2022/02/21 01:22:52;;;;;;;11.60;2.47;;;;;;;5.32;73.90;99938.75;5021767;28;20271;-77
2022/02/21 01:25:17;;;;;;;7.75;2.40;;;;;;;5.32;73.81;99969.91;5021778;28;20029;-78
2022/02/21 01:27:43;;;;;;;10.70;2.22;;;;;;;5.29;73.33;99944.88;5040331;28;20037;-78
2022/02/21 01:30:10;;;;;;;13.05;1.52;;;;;;;5.27;73.36;99941.50;5005363;28;20049;-77
2022/02/21 01:32:36;;;;;;;9.10;1.55;;;;;;;5.23;73.41;99937.31;5022001;28;20210;-77
2022/02/21 01:35:02;;;;;;;15.45;2.42;;;;;;;5.22;74.20;99964.19;5039686;28;20032;-78
2022/02/21 01:37:27;;;;;;;9.98;2.30;;;;;;;5.21;73.82;99967.66;5022356;28;20092;-77
2022/02/21 01:39:52;;;;;;;15.20;2.65;;;;;;;5.16;73.91;99951.38;5021533;28;20033;-77
2022/02/21 01:42:18;;;;;;;6.63;1.55;;;;;;;5.12;73.86;100014.69;5021933;28;20091;-77
2022/02/21 01:44:46;;;;;;;9.38;2.05;;;;;;;5.15;72.32;99973.06;5040315;28;20109;-77
2022/02/21 01:47:20;;;;;;;9.35;2.17;;;;;;;5.14;72.43;99943.63;5021230;28;20045;-77
2022/02/21 01:49:47;;;;;;;11.35;1.95;;;;;;;5.12;72.92;99999.09;5022278;28;20341;-76
2022/02/21 01:52:13;;;;;;;11.20;1.73;;;;;;;5.11;71.92;99981.81;5022481;28;20041;-78
2022/02/21 01:54:39;;;;;;;13.02;1.80;;;;;;;5.13;71.38;99959.25;5039776;28;20048;-77
2022/02/21 01:57:05;;;;;;;8.38;2.10;;;;;;;5.10;71.89;99951.59;5038744;28;20092;-77
2022/02/21 01:59:35;;;;;;;14.93;2.15;;;;;;;5.12;71.44;99979.19;5021709;28;20041;-77
2022/02/21 02:02:00;;;;;;;8.07;1.83;;;;;;;5.10;70.95;99951.59;5039298;28;20067;-77
2022/02/21 02:04:26;;;;;;;11.05;2.63;;;;;;;5.10;71.00;99986.19;5005442;28;20092;-77
2022/02/21 02:06:53;;;;;;;15.30;1.98;;;;;;;5.09;70.46;99974.09;5038705;28;20057;-77
2022/02/21 02:09:18;;;;;;;6.57;1.48;;;;;;;5.09;70.15;99971.50;5039351;28;20052;-77
2022/02/21 02:11:44;;;;;;;11.48;2.10;;;;;;;5.06;70.96;99956.03;5039168;28;20037;-77
2022/02/21 02:14:33;;;;;;;15.68;1.92;;;;;;;5.06;70.58;99960.34;5020952;28;20053;-77
2022/02/21 02:17:03;;;;;;;10.60;2.38;;;;;;;5.10;71.12;99970.59;5021792;28;20040;-77
2022/02/21 02:19:29;;;;;;;15.13;2.28;;;;;;;5.09;70.61;99945.53;5038984;28;20048;-77
2022/02/21 02:21:56;;;;;;;8.88;2.30;;;;;;;5.11;70.79;99950.69;5020573;28;20080;-77
2022/02/21 02:24:23;;;;;;;10.88;1.48;;;;;;;5.12;70.74;99957.59;5038916;28;20052;-77
2022/02/21 02:26:53;;;;;;;16.85;2.80;;;;;;;5.11;71.36;99968.84;5004496;28;20272;-78
2022/02/21 02:29:18;;;;;;;9.07;1.70;;;;;;;5.10;70.60;99973.19;5038321;28;20033;-77
2022/02/21 02:31:43;;;;;;;7.20;1.52;;;;;;;5.09;70.34;99965.47;5004812;28;20459;-77
2022/02/21 02:34:09;;;;;;;8.40;1.70;;;;;;;5.06;69.63;99979.41;5038057;28;20048;-77
2022/02/21 02:36:34;;;;;;;9.25;2.10;;;;;;;5.02;69.94;99975.22;5020001;28;20040;-77
2022/02/21 02:38:59;;;;;;;10.70;1.85;;;;;;;5.02;69.89;99967.41;5000810;28;20038;-77
2022/02/21 02:41:25;;;;;;;10.15;2.00;;;;;;;5.02;70.96;100002.88;5001549;28;20236;-77
2022/02/21 02:43:50;;;;;;;17.23;2.45;;;;;;;5.01;70.31;99970.91;5017923;28;20268;-77
2022/02/21 02:46:15;;;;;;;10.60;2.33;;;;;;;5.00;71.90;100014.19;5021337;28;20049;-77
2022/02/21 02:48:41;;;;;;;8.50;1.77;;;;;;;5.02;70.27;99997.69;5022263;28;20037;-77
2022/02/21 02:51:06;;;;;;;10.77;2.28;;;;;;;5.00;69.97;99988.22;5020608;28;20663;-77
2022/02/21 02:53:32;;;;;;;17.20;2.50;;;;;;;5.00;70.65;100002.91;5021022;28;20103;-77
2022/02/21 02:55:57;;;;;;;10.50;1.95;;;;;;;4.99;70.44;99994.28;5038432;28;20037;-77
2022/02/21 02:58:23;;;;;;;17.42;2.97;;;;;;;4.98;70.56;99996.94;5037759;28;20061;-78
2022/02/21 03:00:48;;;;;;;11.38;2.05;;;;;;;4.99;70.37;100006.44;5020942;28;20060;-77
2022/02/21 03:03:14;;;;;;;8.43;2.10;;;;;;;5.00;71.20;100010.72;5038411;28;20253;-77
2022/02/21 03:05:40;;;;;;;11.73;2.50;;;;;;;4.98;70.30;99992.63;5038925;28;20267;-77
2022/02/21 03:08:05;;;;;;;14.25;2.40;;;;;;;4.94;70.93;99980.63;5004174;28;20079;-77
2022/02/21 03:10:31;;;;;;;16.05;3.35;;;;;;;4.94;71.74;99996.19;5021020;28;20058;-76
2022/02/21 03:12:56;;;;;;;15.35;2.00;;;;;;;4.95;70.85;99987.50;5038272;28;20241;-77
2022/02/21 03:15:21;;;;;;;15.15;2.05;;;;;;;4.95;70.06;100017.81;5021193;28;20065;-77
2022/02/21 03:17:47;;;;;;;11.00;1.98;;;;;;;4.95;70.88;99984.91;5021734;28;20034;-77
2022/02/21 03:20:12;;;;;;;22.95;3.30;;;;;;;4.93;70.44;100025.63;5038735;28;20041;-77
2022/02/21 03:22:38;;;;;;;16.48;3.05;;;;;;;4.95;70.26;99992.69;5004604;28;20033;-77
2022/02/21 03:25:03;;;;;;;15.35;2.50;;;;;;;4.93;70.11;100004.00;5004712;28;20048;-76
2022/02/21 03:27:29;;;;;;;16.60;2.60;;;;;;;4.91;69.88;99964.28;5021152;28;20029;-77
2022/02/21 03:29:54;;;;;;;12.68;2.08;;;;;;;4.87;69.85;100023.22;5004837;28;20041;-77
2022/02/21 03:32:20;;;;;;;10.52;2.70;;;;;;;4.88;69.50;100030.09;5021237;28;20087;-77
2022/02/21 03:34:45;;;;;;;14.52;2.08;;;;;;;4.85;69.15;99990.44;5039369;28;20025;-76
2022/02/21 03:37:10;;;;;;;11.38;2.63;;;;;;;4.83;68.55;100006.03;5020361;28;20091;-76
2022/02/21 03:39:36;;;;;;;10.25;1.85;;;;;;;4.80;67.86;99988.84;5020693;28;20029;-76
2022/02/21 03:42:01;;;;;;;9.00;1.63;;;;;;;4.81;68.27;100008.69;5020358;28;20108;-77
2022/02/21 03:44:26;;;;;;;14.05;1.92;;;;;;;4.80;68.96;99994.03;5020240;28;20033;-76
2022/02/21 03:46:52;;;;;;;10.75;1.70;;;;;;;4.79;68.34;99994.91;5021116;28;20345;-76
2022/02/21 03:49:17;;;;;;;12.02;2.53;;;;;;;4.76;68.52;99995.00;5024220;28;20090;-76
2022/02/21 03:51:43;;;;;;;13.38;1.67;;;;;;;4.75;69.32;99975.16;5024589;28;20043;-76
2022/02/21 03:54:09;;;;;;;11.82;2.20;;;;;;;4.74;70.21;99996.78;5028977;28;20029;-76
2022/02/21 03:56:35;;;;;;;19.77;2.88;;;;;;;4.74;70.39;100009.75;5045630;28;20053;-76
2022/02/21 03:59:00;;;;;;;9.63;2.03;;;;;;;4.75;70.92;100003.69;5025727;28;20040;-76
2022/02/21 04:01:26;;;;;;;18.92;2.78;;;;;;;4.76;70.32;99979.44;5024243;28;20044;-76
2022/02/21 04:03:51;;;;;;;10.45;1.40;;;;;;;4.74;69.29;100024.47;5007477;28;20047;-76
2022/02/21 04:06:17;;;;;;;9.65;1.88;;;;;;;4.73;69.99;99987.31;5042589;28;20045;-76
2022/02/21 04:08:42;;;;;;;13.45;1.92;;;;;;;4.69;69.97;99975.31;5024447;28;20043;-76
2022/02/21 04:11:07;;;;;;;11.23;1.90;;;;;;;4.69;69.84;100010.78;5041672;28;20328;-76
2022/02/21 04:13:33;;;;;;;11.27;2.08;;;;;;;4.68;69.68;99991.78;5041559;28;20293;-76
2022/02/21 04:15:58;;;;;;;12.30;2.20;;;;;;;4.68;69.69;99981.41;5042301;28;20117;-76
2022/02/21 04:18:24;;;;;;;13.80;2.00;;;;;;;4.65;69.60;99984.09;5024225;28;20040;-76
2022/02/21 04:20:50;;;;;;;5.65;1.83;;;;;;;4.63;70.68;100006.63;5041305;28;20030;-76
2022/02/21 04:23:16;;;;;;;17.25;1.98;;;;;;;4.65;70.01;99984.09;5023845;28;20036;-76
2022/02/21 04:25:41;;;;;;;14.90;2.33;;;;;;;4.66;70.89;99997.91;5041301;28;20410;-76
2022/02/21 04:28:07;;;;;;;11.77;3.10;;;;;;;4.65;71.16;99994.47;5007181;28;20075;-77
2022/02/21 04:30:32;;;;;;;10.30;2.70;;;;;;;4.63;71.31;99996.25;5041594;28;20025;-76
2022/02/21 04:32:58;;;;;;;13.85;2.30;;;;;;;4.62;71.76;100002.38;5040973;28;20052;-76
2022/02/21 04:35:25;;;;;;;18.33;2.65;;;;;;;4.64;72.14;100018.72;5024198;28;20040;-77
2022/02/21 04:37:50;;;;;;;11.18;2.47;;;;;;;4.65;73.01;100015.22;5022785;28;20056;-76
2022/02/21 04:40:18;;;;;;;12.07;1.95;;;;;;;4.66;72.17;99997.91;5042098;28;20199;-76
2022/02/21 04:42:44;;;;;;;11.40;1.88;;;;;;;4.65;71.55;100041.16;5042255;28;20029;-76
2022/02/21 04:45:10;;;;;;;13.27;1.80;;;;;;;4.66;71.09;99993.59;5041906;28;20033;-76
2022/02/21 04:47:37;;;;;;;7.82;1.90;;;;;;;4.68;71.72;99993.56;5023299;28;20112;-77
2022/02/21 04:50:07;;;;;;;7.80;1.63;;;;;;;4.66;72.16;100019.53;5006242;28;20025;-76
2022/02/21 04:52:34;;;;;;;11.30;2.42;;;;;;;4.65;71.81;100028.19;5040839;28;20041;-76
2022/02/21 04:55:00;;;;;;;9.73;2.30;;;;;;;4.66;72.10;100029.91;5022890;28;20234;-76
2022/02/21 04:57:25;;;;;;;14.63;2.72;;;;;;;4.65;71.77;99988.44;5022874;28;20226;-76
2022/02/21 04:59:50;;;;;;;9.70;2.00;;;;;;;4.66;71.20;100003.09;5039785;28;20038;-76
2022/02/21 05:02:16;;;;;;;10.55;1.83;;;;;;;4.68;71.16;99972.78;5041263;28;20051;-76
2022/02/21 05:04:41;;;;;;;11.55;2.22;;;;;;;4.65;70.72;99978.06;5006528;28;20037;-76
2022/02/21 05:07:07;;;;;;;9.00;2.20;;;;;;;4.65;70.71;99986.69;5006890;28;20037;-76
2022/02/21 05:09:32;;;;;;;14.38;2.28;;;;;;;4.63;70.74;99975.50;5041910;28;20037;-76
2022/02/21 05:11:57;;;;;;;13.00;2.17;;;;;;;4.63;71.05;99975.50;5040861;28;20033;-76
2022/02/21 05:14:25;;;;;;;7.97;1.70;;;;;;;4.60;70.52;99960.91;5040311;28;20095;-76
2022/02/21 05:16:51;;;;;;;8.40;1.98;;;;;;;4.60;70.15;99962.63;5040656;28;20092;-77
2022/02/21 05:19:16;;;;;;;11.10;2.75;;;;;;;4.58;70.46;99941.97;5039859;28;20040;-76
2022/02/21 05:21:42;;;;;;;12.15;2.10;;;;;;;4.54;70.22;99944.69;5022983;28;20033;-76
2022/02/21 05:24:07;;;;;;;12.10;2.22;;;;;;;4.54;70.68;99947.25;5022597;28;20041;-76
2022/02/21 05:26:33;;;;;;;7.63;1.60;;;;;;;4.52;70.98;99959.44;5023549;28;20033;-76
2022/02/21 05:28:58;;;;;;;14.05;2.17;;;;;;;4.51;70.60;99937.84;5040415;28;20345;-76
2022/02/21 05:31:24;;;;;;;16.20;2.85;;;;;;;4.53;70.89;99963.72;5040388;28;20249;-76
2022/02/21 05:33:50;;;;;;;13.73;2.58;;;;;;;4.51;70.92;99960.31;5040580;28;20108;-76
2022/02/21 05:36:15;;;;;;;8.90;1.83;;;;;;;4.51;71.07;99936.97;5039825;28;20041;-77
2022/02/21 05:38:40;;;;;;;12.65;2.60;;;;;;;4.51;70.69;99949.94;5039065;28;20048;-76
2022/02/21 05:41:06;;;;;;;12.35;2.10;;;;;;;4.53;71.46;99953.34;5005303;28;20029;-76
2022/02/21 05:43:31;;;;;;;13.30;2.13;;;;;;;4.51;71.07;99945.63;5040160;28;20042;-76
2022/02/21 05:45:57;;;;;;;13.93;2.17;;;;;;;4.50;71.33;99938.72;5038851;28;20120;-76
2022/02/21 05:48:22;;;;;;;13.50;2.75;;;;;;;4.49;72.07;99937.03;5021591;28;20037;-76
2022/02/21 05:50:47;;;;;;;15.40;2.67;;;;;;;4.50;71.43;99937.88;5005848;28;20037;-76
2022/02/21 05:53:13;;;;;;;12.73;2.28;;;;;;;4.45;71.57;99935.41;5022209;28;20120;-76
2022/02/21 05:55:38;;;;;;;10.95;1.90;;;;;;;4.46;71.95;99916.38;5020338;28;20491;-76
2022/02/21 05:58:03;;;;;;;15.13;2.45;;;;;;;4.46;71.82;99931.94;5020101;28;20080;-76
2022/02/21 06:00:29;;;;;;;10.32;2.10;;;;;;;4.47;71.48;99933.63;5027417;28;20245;-76
2022/02/21 06:02:55;;;;;;;13.45;2.28;;;;;;;4.43;71.52;99927.69;5045211;28;20352;-76
2022/02/21 06:05:20;;;;;;;11.98;2.30;;;;;;;4.42;71.40;99926.00;5024902;28;20241;-76
2022/02/21 06:07:45;;;;;;;13.82;2.08;;;;;;;4.45;72.10;99935.41;5040114;28;20039;-76
2022/02/21 06:10:11;;;;;;;12.20;2.50;;;;;;;4.46;72.37;99937.13;5021881;28;20064;-76
2022/02/21 06:12:36;;;;;;;11.48;2.25;;;;;;;4.43;72.04;99919.91;5021992;28;20029;-76
2022/02/21 06:15:02;;;;;;;11.75;1.83;;;;;;;4.46;71.64;99924.16;5022391;28;20049;-76
2022/02/21 06:17:28;;;;;;;12.30;1.95;;;;;;;4.43;72.53;99916.47;5005753;28;20052;-76
2022/02/21 06:19:53;;;;;;;15.88;2.47;;;;;;;4.43;72.41;99919.06;5021054;28;20025;-76
2022/02/21 06:22:20;;;;;;;15.05;2.58;;;;;;;4.46;71.89;99910.34;5039842;28;20049;-76
2022/02/21 06:24:45;;;;;;;18.75;2.65;;;;;;;4.42;72.09;99928.59;5005109;28;20357;-76
2022/02/21 06:27:10;;;;;;;15.73;2.85;;;;;;;4.36;72.65;99920.97;5038649;28;20340;-77
2022/02/21 06:29:36;;;;;;;8.52;2.15;;;;;;;4.40;72.38;99911.38;5020964;28;20341;-77
2022/02/21 06:32:01;;;;;;;10.57;2.15;;;;;;;4.40;72.49;99906.19;5018686;28;20045;-76
2022/02/21 06:34:27;;;;;;;10.85;3.05;;;;;;;4.45;72.39;99914.69;5038434;28;20029;-76
2022/02/21 06:36:52;;;;;;;10.30;3.05;;;;;;;4.46;72.95;99903.44;5003499;28;20037;-76
2022/02/21 06:39:19;;;;;;;17.15;3.92;;;;;;;4.46;73.11;99913.78;5020538;28;20354;-76
2022/02/21 06:41:46;;;;;;;16.58;2.22;;;;;;;4.45;73.67;99912.09;5004160;28;20041;-76
2022/02/21 06:44:13;;;;;;;13.10;2.67;;;;;;;4.47;74.29;99912.03;5036916;28;20052;-76
2022/02/21 06:46:39;;;;;;;10.93;2.83;;;;;;;4.45;74.00;99900.88;5020895;28;20530;-76
2022/02/21 06:49:04;;;;;;;14.45;2.47;;;;;;;4.52;73.43;99915.34;5037839;28;20048;-76
2022/02/21 06:51:30;;;;;;;12.27;2.25;;;;;;;4.51;74.16;99892.91;5020519;28;20087;-76
2022/02/21 06:53:55;;;;;;;17.00;2.85;;;;;;;4.54;73.66;99917.00;5019685;28;20267;-76
2022/02/21 06:56:21;;;;;;;9.40;1.80;;;;;;;4.63;72.93;99897.72;5019880;28;20349;-76
2022/02/21 06:58:46;;;;;;;9.70;2.35;;;;;;;4.65;72.81;99921.84;5021031;28;20063;-76
2022/02/21 07:01:12;;;;;;;20.85;2.75;;;;;;;4.65;72.86;99882.09;5037260;28;20104;-76
2022/02/21 07:03:37;;;;;;;9.95;2.15;;;;;;;4.66;72.87;99876.00;5020480;28;20049;-76
2022/02/21 07:06:03;;;;;;;17.00;2.33;;;;;;;4.67;72.91;99898.47;5037754;28;20233;-76
2022/02/21 07:08:28;;;;;;;19.20;2.95;;;;;;;4.67;72.81;99881.16;5037308;28;20108;-76
2022/02/21 07:10:53;;;;;;;15.05;2.47;;;;;;;4.70;72.43;99903.56;5037484;28;20396;-76
2022/02/21 07:13:19;;;;;;;8.45;2.22;;;;;;;4.74;72.41;99855.88;5019997;28;20390;-76
2022/02/21 07:15:44;;;;;;;15.20;2.33;;;;;;;4.73;72.21;99862.81;5037531;28;20045;-76
2022/02/21 07:18:11;;;;;;;16.08;1.75;;;;;;;4.83;71.60;99873.72;5002465;28;20040;-76
2022/02/21 07:20:37;;;;;;;18.85;3.00;;;;;;;4.86;72.56;99846.81;5012000;28;20059;-76
2022/02/21 07:23:02;;;;;;;18.63;3.72;;;;;;;4.85;72.34;99866.75;5038901;28;20048;-76
2022/02/21 07:25:29;;;;;;;7.00;2.25;;;;;;;4.90;72.47;99853.63;5015686;28;20345;-76
2022/02/21 07:27:55;;;;;;;17.55;3.75;;;;;;;4.90;72.71;99857.06;5019938;28;20048;-76
2022/02/21 07:30:23;;;;;;;8.77;2.13;;;;;;;4.92;72.74;99859.63;5019925;28;20104;-76
2022/02/21 07:32:49;;;;;;;15.90;2.60;;;;;;;4.94;72.46;99843.09;5027360;28;20052;-76
2022/02/21 07:35:15;;;;;;;13.20;2.72;;;;;;;4.99;72.38;99838.59;5033382;28;20124;-76
2022/02/21 07:37:41;;;;;;;18.25;2.50;;;;;;;5.03;72.45;99849.72;5036890;28;20109;-76
2022/02/21 07:40:08;;;;;;;18.48;2.53;;;;;;;5.05;73.09;99828.91;5038006;28;20048;-76
2022/02/21 07:42:34;;;;;;;15.95;3.17;;;;;;;5.06;73.33;99839.25;5037177;28;20029;-76
2022/02/21 07:45:00;;;;;;;20.48;3.25;;;;;;;5.10;73.29;99863.34;5036488;28;20045;-76
2022/02/21 07:47:27;;;;;;;9.35;2.78;;;;;;;5.08;74.09;99853.00;5039889;28;20218;-76
2022/02/21 07:49:52;;;;;;;13.60;2.80;;;;;;;5.06;74.44;99828.88;5011303;28;20034;-76
2022/02/21 07:52:18;;;;;;;16.58;2.67;;;;;;;5.07;74.27;99827.09;5034099;28;20037;-76
2022/02/21 07:54:45;;;;;;;15.60;2.53;;;;;;;5.02;75.87;99847.19;5037118;28;20050;-76
2022/02/21 07:57:10;;;;;;;11.32;2.00;;;;;;;4.99;76.34;99812.66;5035321;28;20041;-76
2022/02/21 07:59:35;;;;;;;17.63;2.70;;;;;;;4.95;77.49;99813.66;4999972;28;20351;-76
2022/02/21 08:02:02;;;;;;;15.45;2.88;;;;;;;4.91;77.62;99791.31;5018260;28;20044;-77
2022/02/21 08:04:28;;;;;;;17.75;2.70;;;;;;;4.87;78.63;99786.28;5035937;28;20065;-76
2022/02/21 08:06:53;;;;;;;17.90;3.92;;;;;;;4.84;80.02;99782.06;5017391;28;20041;-77
2022/02/21 08:09:20;;;;;;;13.90;2.42;;;;;;;4.80;80.25;99809.84;5035647;28;20123;-77
2022/02/21 08:11:46;;;;;;;16.88;2.65;;;;;;;4.76;81.17;99777.09;5002228;28;20053;-77
2022/02/21 08:14:12;;;;;;;20.13;3.42;;;;;;;4.75;81.42;99772.00;5001610;28;20042;-76
2022/02/21 08:16:37;;;;;;;16.25;2.60;;;;;;;4.72;82.33;99803.19;5015814;28;20105;-77
2022/02/21 08:19:03;;;;;;;18.27;2.95;;;;;;;4.73;82.32;99787.59;5018580;28;20024;-77
2022/02/21 08:21:28;;;;;;;25.15;3.10;;;;;;;4.66;83.33;99772.25;5018537;28;20041;-77
2022/02/21 08:23:54;;;;;;;23.38;3.45;;;;;;;4.64;83.79;99755.91;5028304;28;20045;-77
2022/02/21 08:26:19;;;;;;;22.25;3.70;;;;;;;4.61;83.77;99762.91;5033004;28;20444;-77
2022/02/21 08:28:45;;;;;;;25.00;3.33;;;;;;;4.63;84.01;99744.69;5035660;28;20048;-77
2022/02/21 08:31:10;;;;;;;15.50;2.70;;;;;;;4.61;84.68;99749.94;5035049;28;20057;-77
2022/02/21 08:33:35;;;;;;;18.13;3.60;;;;;;;4.64;84.91;99745.53;5015080;28;20033;-77
2022/02/21 08:36:01;;;;;;;21.75;3.38;;;;;;;4.66;84.67;99751.53;5035593;28;20147;-77
2022/02/21 08:38:26;;;;;;;32.55;4.53;;;;;;;4.65;84.92;99732.53;5032696;28;20039;-77
2022/02/21 08:40:52;;;;;;;26.98;3.90;;;;;;;4.67;84.80;99738.50;5020794;28;20045;-78
2022/02/21 08:43:17;;;;;;;24.02;3.17;;;;;;;4.70;84.88;99715.06;5020911;28;20060;-77
2022/02/21 08:45:43;;;;;;;23.67;3.50;;;;;;;4.70;85.00;99715.06;5021756;28;20107;-77
2022/02/21 08:48:08;;;;;;;14.80;2.78;;;;;;;4.68;85.16;99716.88;5020528;28;20044;-77
2022/02/21 08:50:34;;;;;;;19.15;3.63;;;;;;;4.69;85.44;99718.53;5034024;28;20047;-77
2022/02/21 08:52:59;;;;;;;23.15;3.22;;;;;;;4.69;86.02;99696.97;5038467;28;20095;-77
2022/02/21 08:55:25;;;;;;;21.73;3.65;;;;;;;4.72;85.56;99709.84;5035004;28;20136;-77
2022/02/21 08:57:50;;;;;;;26.58;3.75;;;;;;;4.76;85.48;99755.50;5036375;28;20041;-77
2022/02/21 09:00:17;;;;;;;21.67;3.67;;;;;;;4.80;85.03;99697.41;5036380;28;20053;-77
2022/02/21 09:02:44;;;;;;;28.00;3.78;;;;;;;4.84;84.77;99701.63;5021667;28;20029;-77
2022/02/21 09:05:14;;;;;;;21.95;3.10;;;;;;;4.90;84.32;99716.13;5041662;28;20051;-77
2022/02/21 09:07:39;;;;;;;28.33;4.45;;;;;;;4.92;84.35;99727.28;5036523;28;20076;-77
2022/02/21 09:10:06;;;;;;;34.58;3.90;;;;;;;4.97;84.03;99707.22;5036836;28;20029;-76
2022/02/21 09:12:32;;;;;;;30.25;4.10;;;;;;;5.01;83.84;99669.88;5038123;28;20030;-77
2022/02/21 09:15:01;;;;;;;22.60;3.20;;;;;;;5.03;83.80;99711.34;5020145;28;20288;-77
2022/02/21 09:17:27;;;;;;;28.08;4.25;;;;;;;5.02;83.86;99710.50;5037586;28;20037;-77
2022/02/21 09:19:53;;;;;;;26.77;3.90;;;;;;;5.04;84.22;99685.34;5036255;28;20061;-77
2022/02/21 09:22:20;;;;;;;28.77;3.72;;;;;;;5.06;84.31;99691.31;5019806;28;20361;-77
2022/02/21 09:24:45;;;;;;;33.50;3.85;;;;;;;5.06;84.51;99701.69;5038212;28;20057;-77
2022/02/21 09:27:10;;;;;;;32.35;4.15;;;;;;;5.07;84.57;99693.00;5034463;28;20214;-77
2022/02/21 09:29:36;;;;;;;28.88;3.72;;;;;;;5.09;84.87;99683.41;5032771;28;20029;-78
2022/02/21 09:32:01;;;;;;;22.10;3.95;;;;;;;5.15;84.40;99690.16;5034469;28;20145;-77
2022/02/21 09:34:27;;;;;;;25.98;4.32;;;;;;;5.14;85.12;99693.63;5035914;28;20086;-77
2022/02/21 09:36:52;;;;;;;31.52;4.82;;;;;;;5.12;85.47;99709.25;5037354;28;20392;-77
2022/02/21 09:39:18;;;;;;;24.77;3.70;;;;;;;5.17;85.40;99719.50;5023936;28;20263;-78
2022/02/21 09:41:43;;;;;;;27.55;3.65;;;;;;;5.16;85.75;99722.97;5047659;28;20036;-78
2022/02/21 09:44:10;;;;;;;27.42;3.45;;;;;;;5.21;85.31;99717.63;5016493;28;20063;-78
2022/02/21 09:46:36;;;;;;;23.55;4.00;;;;;;;5.19;85.45;99712.50;5020365;28;20325;-77
2022/02/21 09:49:01;;;;;;;22.88;3.30;;;;;;;5.22;84.57;99699.41;5019892;28;20048;-78
2022/02/21 09:51:27;;;;;;;25.35;3.45;;;;;;;5.19;85.03;99673.56;5021031;28;20033;-77
2022/02/21 09:53:53;;;;;;;21.42;3.10;;;;;;;5.19;84.92;99673.56;5039897;28;20029;-77
2022/02/21 09:56:18;;;;;;;20.05;3.15;;;;;;;5.21;84.98;99723.66;5037726;28;20037;-77
2022/02/21 09:58:44;;;;;;;23.80;2.92;;;;;;;5.28;84.08;99698.34;5038751;28;20253;-77
2022/02/21 10:01:10;;;;;;;26.15;3.97;;;;;;;5.30;84.45;99658.41;5037094;28;20029;-77
2022/02/21 10:03:42;;;;;;;25.92;4.47;;;;;;;5.30;84.88;99663.59;5038868;28;20340;-77
2022/02/21 10:06:16;;;;;;;27.85;4.57;;;;;;;5.33;85.18;99670.41;5016202;28;20026;-77
2022/02/21 10:08:51;;;;;;;29.08;4.05;;;;;;;5.35;85.42;99676.44;5030641;28;20099;-77
2022/02/21 10:11:30;;;;;;;34.13;5.05;;;;;;;5.39;85.86;99659.81;5028130;28;20224;-76
2022/02/21 10:13:57;;;;;;;35.78;4.55;;;;;;;5.47;85.12;99688.94;5041669;28;20120;-77
2022/02/21 10:16:23;;;;;;;31.33;4.57;;;;;;;5.49;85.48;99687.09;5027809;28;20107;-77
2022/02/21 10:18:49;;;;;;;24.27;4.72;;;;;;;5.53;85.30;99680.06;5028208;28;20037;-77
2022/02/21 10:21:14;;;;;;;42.53;5.05;;;;;;;5.54;85.21;99677.41;5036604;28;20441;-77
2022/02/21 10:23:43;;;;;;;33.60;5.22;;;;;;;5.61;85.41;99665.03;5019504;28;20105;-78
2022/02/21 10:26:09;;;;;;;26.23;4.65;;;;;;;5.61;86.06;99672.00;5036379;28;20044;-77
2022/02/21 10:28:40;;;;;;;24.60;4.25;;;;;;;5.65;85.71;99657.97;5019714;28;20317;-77
2022/02/21 10:31:21;;;;;;;33.15;3.97;;;;;;;5.71;85.33;99673.31;5036661;28;20270;-77
2022/02/21 10:33:59;;;;;;;31.98;4.30;;;;;;;5.76;85.00;99690.41;5017953;28;20218;-77
2022/02/21 10:36:31;;;;;;;32.47;3.67;;;;;;;5.79;85.42;99697.25;5022908;28;20028;-77
2022/02/21 10:38:57;;;;;;;30.63;4.07;;;;;;;5.82;85.51;99724.84;5032780;28;20033;-77
2022/02/21 10:41:42;;;;;;;27.80;4.13;;;;;;;5.87;85.46;99691.75;5036306;28;20041;-77
2022/02/21 10:44:28;;;;;;;24.95;3.70;;;;;;;5.85;85.93;99714.34;5018947;28;20066;-77
2022/02/21 10:47:13;;;;;;;32.72;5.13;;;;;;;5.86;86.51;99697.84;5029791;28;20064;-77
2022/02/21 10:49:46;;;;;;;29.05;3.97;;;;;;;5.85;87.09;99690.97;5036176;28;20229;-77
2022/02/21 10:52:22;;;;;;;45.63;5.93;;;;;;;5.83;87.65;99669.38;5012687;28;20214;-78
2022/02/21 10:54:49;;;;;;;23.60;3.35;;;;;;;5.84;87.71;99702.25;5033734;28;20021;-77
2022/02/21 10:57:17;;;;;;;22.73;3.88;;;;;;;5.87;87.81;99686.53;5019255;28;20305;-77
2022/02/21 10:59:43;;;;;;;26.50;5.00;;;;;;;5.92;87.32;99682.00;5037052;28;20040;-77
2022/02/21 11:02:10;;;;;;;31.38;4.95;;;;;;;6.00;86.98;99728.50;5020650;28;20040;-76
2022/02/21 11:04:38;;;;;;;21.20;4.10;;;;;;;6.07;86.85;99740.34;5008056;28;20033;-77
2022/02/21 11:07:04;;;;;;;27.15;3.40;;;;;;;6.14;86.58;99778.19;5038024;28;20242;-78
2022/02/21 11:09:30;;;;;;;27.60;4.63;;;;;;;6.19;86.33;99713.88;5037776;28;20037;-78
2022/02/21 11:12:00;;;;;;;27.30;3.35;;;;;;;6.25;86.04;99720.59;5037993;28;20091;-77
2022/02/21 11:14:29;;;;;;;22.98;4.07;;;;;;;6.26;86.56;99704.94;5037577;28;20116;-77
2022/02/21 11:16:56;;;;;;;23.38;3.38;;;;;;;6.32;85.53;99699.47;5038358;28;20041;-77
2022/02/21 11:19:22;;;;;;;25.77;4.07;;;;;;;6.35;86.20;99750.50;5037817;28;20304;-77
2022/02/21 11:21:48;;;;;;;25.10;3.33;;;;;;;6.38;86.33;99713.13;5037339;28;20037;-77
2022/02/21 11:24:16;;;;;;;24.08;3.50;;;;;;;6.41;86.22;99719.03;5008614;28;20104;-77
2022/02/21 11:27:03;;;;;;;26.67;3.28;;;;;;;6.48;85.82;99740.47;5020527;28;20021;-78
2022/02/21 11:30:03;;;;;;;28.42;3.70;;;;;;;6.53;85.79;99702.06;5020978;28;20341;-77